Time;durP1;ratioP1;P1;durP2;ratioP2;P2;SDS_P1;SDS_P2;PMS_P1;PMS_P2;Temp;Humidity;BMP_temperature;BMP_pressure;BME280_temperature;BME280_humidity;BME280_pressure;Samples;Min_cycle;Max_cycle;Signal;HPM_P1;HPM_P2
2021/11/11 00:00:11;;;;;;;907.88;133.57;;;3.10;93.40;;;;;;5028087;28;20842;-73
2021/11/11 00:02:40;;;;;;;337.50;66.05;;;3.10;94.80;;;;;;5018453;28;20220;-73
2021/11/11 00:05:10;;;;;;;41.55;37.55;;;3.10;97.50;;;;;;5026666;28;20279;-73
2021/11/11 00:07:37;;;;;;;39.72;36.13;;;3.10;96.90;;;;;;5027979;28;20197;-73
2021/11/11 00:10:05;;;;;;;40.60;36.80;;;3.10;96.20;;;;;;5021169;28;20205;-73
2021/11/11 00:12:32;;;;;;;36.03;32.83;;;3.00;95.20;;;;;;5027869;28;20244;-74
2021/11/11 00:14:59;;;;;;;36.85;33.65;;;3.00;94.30;;;;;;5028979;28;20563;-74
2021/11/11 00:17:26;;;;;;;36.70;33.45;;;3.00;93.70;;;;;;5026549;28;20200;-74
2021/11/11 00:19:55;;;;;;;38.42;34.92;;;3.10;93.20;;;;;;5019123;28;20227;-74
2021/11/11 00:22:22;;;;;;;37.17;33.95;;;3.00;93.20;;;;;;5027994;28;20221;-74
2021/11/11 00:24:49;;;;;;;38.20;34.30;;;3.00;94.50;;;;;;5028538;28;20211;-73
2021/11/11 00:27:16;;;;;;;36.55;33.65;;;3.00;94.60;;;;;;5026426;28;20253;-73
2021/11/11 00:29:44;;;;;;;35.63;32.50;;;3.00;94.50;;;;;;5028991;28;20730;-73
2021/11/11 00:32:11;;;;;;;37.30;33.83;;;3.00;94.20;;;;;;5026641;28;20263;-73
2021/11/11 00:34:39;;;;;;;38.80;35.20;;;3.10;93.40;;;;;;5026176;28;20203;-73
2021/11/11 00:37:08;;;;;;;37.08;33.78;;;3.10;92.70;;;;;;5027298;28;20374;-73
2021/11/11 00:39:35;;;;;;;37.63;34.03;;;3.00;92.60;;;;;;5028015;28;20227;-74
2021/11/11 00:42:03;;;;;;;69.10;36.75;;;2.90;93.20;;;;;;5025833;28;20204;-73
2021/11/11 00:44:30;;;;;;;38.55;35.15;;;2.90;94.00;;;;;;5025756;28;20231;-73
2021/11/11 00:46:57;;;;;;;39.17;35.40;;;2.90;94.80;;;;;;5026736;28;20204;-73
2021/11/11 00:49:23;;;;;;;37.88;34.70;;;2.90;94.40;;;;;;5027876;28;20204;-73
2021/11/11 00:51:50;;;;;;;38.08;34.67;;;2.80;93.70;;;;;;5020454;28;20200;-75
2021/11/11 00:54:19;;;;;;;38.92;35.63;;;2.80;93.40;;;;;;5029611;28;20203;-74
2021/11/11 00:56:46;;;;;;;1999.90;363.42;;;2.90;93.00;;;;;;5028195;28;20209;-74
2021/11/11 00:59:13;;;;;;;1999.90;452.70;;;2.80;95.80;;;;;;5028732;28;20232;-75
2021/11/11 01:01:40;;;;;;;36.97;33.63;;;2.80;98.20;;;;;;5029030;28;20720;-74
2021/11/11 01:04:07;;;;;;;37.65;34.08;;;2.90;97.10;;;;;;5025355;28;20247;-76
2021/11/11 01:06:34;;;;;;;368.45;69.22;;;3.00;95.50;;;;;;5025544;28;20206;-74
2021/11/11 01:09:01;;;;;;;458.73;75.13;;;2.90;95.00;;;;;;5032371;28;20210;-75
2021/11/11 01:11:29;;;;;;;39.67;35.97;;;2.80;95.70;;;;;;5031265;28;20211;-75
2021/11/11 01:13:56;;;;;;;37.38;33.95;;;2.70;95.40;;;;;;5032260;28;20216;-75
2021/11/11 01:16:23;;;;;;;39.25;35.85;;;2.80;95.60;;;;;;5033169;28;20209;-75
2021/11/11 01:18:50;;;;;;;39.47;35.97;;;2.80;94.90;;;;;;5033501;28;20287;-74
2021/11/11 01:21:17;;;;;;;39.45;35.63;;;2.90;94.50;;;;;;5032501;28;20220;-76
2021/11/11 01:23:44;;;;;;;39.90;36.05;;;3.00;93.20;;;;;;5031709;28;20602;-74
2021/11/11 01:26:12;;;;;;;38.83;35.13;;;3.00;92.80;;;;;;5029913;28;20290;-73
2021/11/11 01:28:40;;;;;;;39.30;36.00;;;3.00;92.80;;;;;;5032297;28;20196;-74
2021/11/11 01:31:07;;;;;;;283.42;59.70;;;2.90;92.80;;;;;;5020342;28;20232;-74
2021/11/11 01:33:35;;;;;;;1999.90;617.83;;;2.80;95.00;;;;;;5027038;28;20230;-73
2021/11/11 01:36:02;;;;;;;41.40;37.47;;;2.80;98.80;;;;;;5029239;28;20227;-73
2021/11/11 01:38:29;;;;;;;40.75;36.47;;;2.80;96.80;;;;;;5030193;28;20200;-72
2021/11/11 01:40:56;;;;;;;39.88;36.40;;;2.90;95.60;;;;;;5030193;28;20218;-74
2021/11/11 01:43:23;;;;;;;37.60;34.50;;;2.80;95.20;;;;;;5030451;28;20227;-72
2021/11/11 01:45:52;;;;;;;74.05;38.38;;;2.70;95.20;;;;;;5027921;28;20193;-73
2021/11/11 01:48:18;;;;;;;400.52;65.60;;;2.70;95.40;;;;;;5031696;28;20287;-74
2021/11/11 01:50:46;;;;;;;40.17;36.42;;;2.70;96.50;;;;;;5029435;28;20205;-73
2021/11/11 01:53:15;;;;;;;42.85;38.75;;;2.80;96.00;;;;;;5031097;28;20224;-73
2021/11/11 01:55:45;;;;;;;42.30;37.70;;;2.90;95.20;;;;;;5030033;28;20196;-73
2021/11/11 01:58:12;;;;;;;41.50;37.65;;;2.80;95.40;;;;;;5031409;28;20232;-73
2021/11/11 02:00:42;;;;;;;39.42;35.92;;;2.80;94.90;;;;;;5025822;28;20228;-72
2021/11/11 02:03:14;;;;;;;40.13;36.50;;;2.80;94.70;;;;;;5028053;28;20255;-75
2021/11/11 02:05:42;;;;;;;40.10;36.30;;;2.90;94.00;;;;;;5029712;28;20304;-73
2021/11/11 02:08:09;;;;;;;154.27;43.67;;;2.70;93.60;;;;;;5030583;28;20196;-73
2021/11/11 02:10:37;;;;;;;38.20;34.40;;;2.60;96.90;;;;;;5030079;28;20197;-74
2021/11/11 02:13:05;;;;;;;38.13;34.67;;;2.60;95.70;;;;;;5031073;28;21063;-73
2021/11/11 02:15:33;;;;;;;37.80;34.60;;;2.50;95.10;;;;;;5029385;28;20672;-73
2021/11/11 02:18:00;;;;;;;38.78;35.38;;;2.60;94.60;;;;;;5030896;28;20200;-73
2021/11/11 02:20:31;;;;;;;39.65;35.97;;;2.70;93.90;;;;;;5029484;28;20228;-73
2021/11/11 02:23:00;;;;;;;38.60;35.38;;;2.70;93.50;;;;;;5025533;28;20221;-73
2021/11/11 02:25:28;;;;;;;39.45;36.17;;;2.60;94.20;;;;;;5028888;28;20293;-73
2021/11/11 02:27:57;;;;;;;38.63;35.15;;;2.50;93.70;;;;;;5020745;28;20209;-75
2021/11/11 02:30:25;;;;;;;37.70;34.55;;;2.50;93.90;;;;;;5029158;28;20345;-73
2021/11/11 02:32:53;;;;;;;40.35;36.60;;;2.40;94.40;;;;;;5028108;28;20293;-73
2021/11/11 02:35:21;;;;;;;39.50;36.15;;;2.40;94.60;;;;;;5029788;28;20220;-72
2021/11/11 02:37:49;;;;;;;40.88;36.92;;;2.50;94.70;;;;;;5026081;28;20205;-73
2021/11/11 02:40:19;;;;;;;168.75;47.80;;;2.50;94.20;;;;;;5029917;28;20232;-73
2021/11/11 02:42:47;;;;;;;956.17;136.25;;;2.60;93.70;;;;;;5029733;28;20220;-73
2021/11/11 02:45:16;;;;;;;40.33;36.35;;;2.50;96.10;;;;;;5028361;28;20275;-73
2021/11/11 02:47:44;;;;;;;40.08;36.70;;;2.50;95.80;;;;;;5026833;28;20750;-73
2021/11/11 02:50:12;;;;;;;40.13;36.42;;;2.50;95.50;;;;;;5031068;28;20196;-74
2021/11/11 02:52:40;;;;;;;40.42;36.70;;;2.50;95.40;;;;;;5028583;28;20232;-74
2021/11/11 02:55:09;;;;;;;38.83;35.40;;;2.50;95.30;;;;;;5031348;28;20219;-75
2021/11/11 02:57:38;;;;;;;40.47;36.78;;;2.60;95.30;;;;;;5031073;28;20210;-74
2021/11/11 03:00:10;;;;;;;45.38;38.22;;;2.70;95.10;;;;;;5030119;28;20334;-75
2021/11/11 03:02:38;;;;;;;368.52;76.55;;;2.80;94.90;;;;;;5025896;28;20255;-75
2021/11/11 03:05:08;;;;;;;161.20;47.40;;;2.70;95.40;;;;;;5013730;28;20267;-75
2021/11/11 03:07:35;;;;;;;41.38;37.08;;;2.80;97.50;;;;;;5029319;28;20199;-74
2021/11/11 03:10:02;;;;;;;54.45;37.17;;;2.80;96.80;;;;;;5031425;28;20197;-76
2021/11/11 03:12:30;;;;;;;512.47;89.63;;;2.80;96.20;;;;;;5030487;28;20240;-75
2021/11/11 03:14:57;;;;;;;42.05;37.95;;;2.80;98.20;;;;;;5024068;28;20197;-74
2021/11/11 03:17:25;;;;;;;41.28;37.25;;;2.90;97.20;;;;;;5025500;28;20204;-75
2021/11/11 03:19:52;;;;;;;39.70;35.85;;;2.80;96.50;;;;;;5017990;28;20296;-74
2021/11/11 03:22:20;;;;;;;41.50;37.53;;;2.80;96.40;;;;;;5029228;28;20593;-74
2021/11/11 03:24:49;;;;;;;40.15;36.38;;;2.80;96.20;;;;;;5025799;28;20200;-74
2021/11/11 03:27:17;;;;;;;41.95;37.75;;;2.80;96.00;;;;;;5028346;28;20203;-74
2021/11/11 03:29:46;;;;;;;308.85;62.58;;;2.80;96.00;;;;;;5029813;28;20279;-74
2021/11/11 03:32:13;;;;;;;41.90;37.80;;;2.80;95.90;;;;;;5029616;28;20303;-74
2021/11/11 03:34:41;;;;;;;40.15;36.67;;;2.80;96.40;;;;;;5019583;28;20209;-75
2021/11/11 03:37:11;;;;;;;41.92;38.00;;;3.00;95.90;;;;;;5025635;28;20223;-75
2021/11/11 03:39:38;;;;;;;43.40;38.88;;;3.00;95.10;;;;;;5030281;28;20194;-74
2021/11/11 03:42:06;;;;;;;41.75;37.30;;;3.00;95.10;;;;;;5026132;28;20311;-74
2021/11/11 03:44:33;;;;;;;902.78;137.50;;;3.00;95.00;;;;;;5029663;28;20318;-75
2021/11/11 03:47:02;;;;;;;42.83;38.53;;;2.90;95.10;;;;;;5026823;28;20198;-74
2021/11/11 03:49:30;;;;;;;41.50;37.65;;;3.00;95.10;;;;;;5030658;28;20677;-74
2021/11/11 03:51:56;;;;;;;113.07;44.90;;;3.10;94.90;;;;;;5026460;28;20203;-73
2021/11/11 03:54:24;;;;;;;42.83;38.70;;;3.00;95.90;;;;;;5030255;28;20207;-74
2021/11/11 03:56:54;;;;;;;40.63;36.47;;;3.00;96.40;;;;;;5029407;28;20220;-74
2021/11/11 03:59:21;;;;;;;42.42;38.33;;;3.10;95.90;;;;;;5030436;28;20923;-74
2021/11/11 04:01:48;;;;;;;39.17;35.35;;;3.10;95.40;;;;;;5027673;28;20259;-75
2021/11/11 04:04:17;;;;;;;39.95;36.25;;;3.20;94.60;;;;;;5029148;28;20215;-74
2021/11/11 04:06:44;;;;;;;41.40;37.53;;;3.20;94.30;;;;;;5027541;28;20276;-75
2021/11/11 04:09:11;;;;;;;270.95;62.10;;;3.10;95.20;;;;;;5030354;28;20677;-76
2021/11/11 04:11:38;;;;;;;1860.05;300.55;;;3.00;98.00;;;;;;5026609;28;20204;-74
2021/11/11 04:14:05;;;;;;;224.43;60.70;;;3.00;99.20;;;;;;5030111;28;20310;-75
2021/11/11 04:16:34;;;;;;;355.15;76.40;;;3.00;98.40;;;;;;5027825;28;20204;-74
2021/11/11 04:19:01;;;;;;;429.98;86.43;;;3.00;98.30;;;;;;5029695;28;20193;-74
2021/11/11 04:21:30;;;;;;;304.10;66.25;;;3.00;99.90;;;;;;5028889;28;20690;-75
2021/11/11 04:23:57;;;;;;;40.08;36.08;;;3.00;99.90;;;;;;5029405;28;20224;-74
2021/11/11 04:26:26;;;;;;;41.45;37.65;;;3.10;99.60;;;;;;5028618;28;20193;-75
2021/11/11 04:28:57;;;;;;;42.92;38.80;;;3.00;98.30;;;;;;5029819;28;20210;-74
2021/11/11 04:31:26;;;;;;;39.97;36.53;;;2.90;97.20;;;;;;5030281;28;20204;-75
2021/11/11 04:33:56;;;;;;;187.80;47.42;;;2.90;96.90;;;;;;5031610;28;20216;-75
2021/11/11 04:36:45;;;;;;;1999.90;352.08;;;2.80;97.00;;;;;;5027892;28;20563;-75
2021/11/11 04:39:28;;;;;;;40.47;36.78;;;2.90;99.40;;;;;;5023391;28;20220;-74
2021/11/11 04:42:10;;;;;;;187.73;48.92;;;2.90;98.80;;;;;;5025195;28;20221;-75
2021/11/11 04:44:47;;;;;;;41.47;37.63;;;2.90;97.60;;;;;;5028363;28;20193;-75
2021/11/11 04:47:27;;;;;;;42.38;38.67;;;2.90;98.20;;;;;;5024337;28;20199;-75
2021/11/11 04:50:27;;;;;;;40.20;36.42;;;2.90;97.30;;;;;;5028485;28;20680;-74
2021/11/11 04:53:08;;;;;;;41.42;37.85;;;2.80;96.50;;;;;;5024817;28;20282;-74
2021/11/11 05:01:20;;;;;;;372.80;74.25;;;2.70;95.90;;;;;;5028826;28;20233;-74
2021/11/11 05:03:48;;;;;;;41.78;37.90;;;2.70;97.10;;;;;;5027562;28;20610;-74
2021/11/11 05:06:17;;;;;;;41.88;38.17;;;2.70;97.40;;;;;;5025932;28;20226;-75
2021/11/11 05:08:44;;;;;;;1993.43;304.08;;;2.70;97.10;;;;;;5029382;28;20719;-75
2021/11/11 05:11:12;;;;;;;42.90;39.13;;;2.80;97.70;;;;;;5028592;28;20906;-75
2021/11/11 05:13:40;;;;;;;43.00;38.67;;;2.70;98.00;;;;;;5031186;28;20307;-74
2021/11/11 05:16:07;;;;;;;43.60;39.65;;;2.70;96.80;;;;;;5029004;28;20204;-75
2021/11/11 05:18:33;;;;;;;41.28;37.30;;;2.60;95.30;;;;;;5028698;28;20850;-75
2021/11/11 05:21:01;;;;;;;41.17;37.42;;;2.60;95.10;;;;;;5024617;28;20234;-74
2021/11/11 05:23:28;;;;;;;40.30;36.47;;;2.60;94.90;;;;;;5027578;28;20713;-75
2021/11/11 05:25:55;;;;;;;43.75;39.83;;;2.50;95.30;;;;;;5025777;28;20204;-77
2021/11/11 05:28:23;;;;;;;41.55;38.03;;;2.50;95.20;;;;;;5028846;28;20207;-74
2021/11/11 05:30:50;;;;;;;44.05;39.92;;;2.50;95.00;;;;;;5027698;28;20323;-75
2021/11/11 05:33:17;;;;;;;40.47;36.50;;;2.40;95.20;;;;;;5029464;28;20255;-74
2021/11/11 05:35:44;;;;;;;44.35;40.25;;;2.40;95.20;;;;;;5026742;28;20462;-73
2021/11/11 05:38:12;;;;;;;42.25;38.40;;;2.50;95.50;;;;;;5027109;28;20875;-72
2021/11/11 05:40:40;;;;;;;42.80;38.58;;;2.40;95.40;;;;;;5024780;28;20208;-75
2021/11/11 05:43:06;;;;;;;43.05;39.28;;;2.40;95.40;;;;;;5026392;28;20310;-73
2021/11/11 05:45:35;;;;;;;45.03;40.88;;;2.40;95.70;;;;;;5025994;28;20188;-73
2021/11/11 05:48:02;;;;;;;44.10;40.00;;;2.40;95.60;;;;;;5028147;28;20207;-73
2021/11/11 05:50:30;;;;;;;43.63;39.80;;;2.40;95.60;;;;;;5026459;28;20572;-73
2021/11/11 05:52:57;;;;;;;44.97;40.80;;;2.40;95.70;;;;;;5027771;28;20716;-72
2021/11/11 05:55:24;;;;;;;43.75;39.55;;;2.40;95.80;;;;;;5029418;28;20745;-73
2021/11/11 05:57:50;;;;;;;41.65;38.08;;;2.20;95.50;;;;;;5030109;28;20209;-74
2021/11/11 06:00:19;;;;;;;44.97;40.92;;;2.20;95.60;;;;;;5030010;28;20199;-74
2021/11/11 06:02:48;;;;;;;46.47;42.58;;;2.30;95.00;;;;;;5030120;28;20228;-73
2021/11/11 06:05:18;;;;;;;44.38;40.28;;;2.20;95.00;;;;;;5029640;28;20209;-73
2021/11/11 06:07:45;;;;;;;45.30;41.08;;;2.20;95.30;;;;;;5030566;28;20195;-73
2021/11/11 06:10:12;;;;;;;43.30;39.28;;;2.20;95.50;;;;;;5028833;28;20206;-72
2021/11/11 06:12:39;;;;;;;44.95;40.55;;;2.30;95.50;;;;;;5029559;28;20365;-76
2021/11/11 06:15:08;;;;;;;44.47;39.83;;;2.30;95.30;;;;;;5030630;28;20655;-73
2021/11/11 06:17:36;;;;;;;41.38;37.78;;;2.30;95.30;;;;;;5021257;28;20200;-73
2021/11/11 06:20:14;;;;;;;42.40;38.70;;;2.30;94.90;;;;;;5029422;28;20200;-72
2021/11/11 06:22:43;;;;;;;43.50;39.35;;;2.30;95.00;;;;;;5028795;28;20228;-73
2021/11/11 06:25:11;;;;;;;44.90;40.25;;;2.30;95.20;;;;;;5029899;28;20206;-71
2021/11/11 06:27:38;;;;;;;44.53;40.63;;;2.40;95.10;;;;;;5026374;28;20246;-72
2021/11/11 06:30:08;;;;;;;48.25;43.75;;;2.40;95.00;;;;;;5029597;28;20281;-71
2021/11/11 06:32:35;;;;;;;48.35;44.05;;;2.50;95.10;;;;;;5029937;28;20216;-70
2021/11/11 06:35:05;;;;;;;43.78;39.53;;;2.50;94.80;;;;;;5026102;28;20556;-72
2021/11/11 06:37:32;;;;;;;44.35;40.25;;;2.50;95.00;;;;;;5027198;28;20684;-72
2021/11/11 06:39:59;;;;;;;45.63;41.50;;;2.60;94.30;;;;;;5027653;28;20204;-74
2021/11/11 06:42:26;;;;;;;45.00;40.97;;;2.50;93.70;;;;;;5026882;28;20754;-72
2021/11/11 06:44:53;;;;;;;43.25;39.25;;;2.30;94.20;;;;;;5028721;28;20201;-72
2021/11/11 06:47:20;;;;;;;44.20;40.55;;;2.20;94.60;;;;;;5025433;28;20194;-74
2021/11/11 06:49:47;;;;;;;47.47;42.97;;;2.10;95.30;;;;;;5029160;28;20650;-73
2021/11/11 06:52:16;;;;;;;44.53;40.72;;;2.20;95.20;;;;;;5028303;28;20216;-74
2021/11/11 06:54:43;;;;;;;45.08;40.70;;;2.30;95.00;;;;;;5026269;28;20212;-72
2021/11/11 06:57:13;;;;;;;44.15;39.92;;;2.40;95.20;;;;;;5026129;28;20204;-73
2021/11/11 06:59:40;;;;;;;42.10;38.42;;;2.40;95.60;;;;;;5026812;28;20729;-73
2021/11/11 07:02:08;;;;;;;43.42;39.25;;;2.40;95.80;;;;;;5024491;28;20240;-72
2021/11/11 07:04:35;;;;;;;42.15;38.60;;;2.50;95.20;;;;;;5027408;28;20200;-71
2021/11/11 07:07:02;;;;;;;41.53;38.15;;;2.50;94.60;;;;;;5024728;28;20211;-71
2021/11/11 07:09:30;;;;;;;43.13;39.17;;;2.50;94.20;;;;;;5029812;28;20204;-72
2021/11/11 07:11:57;;;;;;;45.08;40.72;;;2.50;93.60;;;;;;5029248;28;20211;-72
2021/11/11 07:14:24;;;;;;;1999.90;717.42;;;2.50;93.60;;;;;;5027682;28;20200;-71
2021/11/11 07:16:52;;;;;;;58.13;40.72;;;2.50;94.60;;;;;;5028132;28;20705;-70
2021/11/11 07:19:19;;;;;;;1999.90;533.22;;;2.60;95.30;;;;;;5030364;28;20578;-70
2021/11/11 07:21:46;;;;;;;42.22;37.47;;;2.70;95.60;;;;;;5027924;28;20224;-69
2021/11/11 07:24:12;;;;;;;43.60;39.35;;;2.80;97.30;;;;;;5029022;28;20285;-69
2021/11/11 07:26:41;;;;;;;72.00;41.80;;;2.90;96.00;;;;;;5028172;28;20579;-69
2021/11/11 07:29:08;;;;;;;43.22;39.47;;;3.00;95.30;;;;;;5027263;28;20296;-69
2021/11/11 07:31:35;;;;;;;42.70;38.70;;;3.00;94.40;;;;;;5022797;28;20227;-70
2021/11/11 07:34:05;;;;;;;43.00;38.63;;;3.10;94.20;;;;;;5027622;28;20701;-71
2021/11/11 07:36:33;;;;;;;180.60;56.97;;;3.30;94.20;;;;;;5020277;28;20207;-74
2021/11/11 07:39:02;;;;;;;42.90;38.90;;;3.40;94.90;;;;;;5030628;28;20204;-73
2021/11/11 07:41:29;;;;;;;45.30;40.47;;;3.50;96.60;;;;;;5023337;28;20228;-72
2021/11/11 07:43:58;;;;;;;45.30;40.58;;;3.60;94.20;;;;;;5025269;28;20332;-71
2021/11/11 07:46:25;;;;;;;40.53;36.90;;;3.60;93.50;;;;;;5031255;28;20285;-72
2021/11/11 07:48:52;;;;;;;46.70;41.92;;;3.70;93.60;;;;;;5028931;28;20198;-71
2021/11/11 07:51:18;;;;;;;364.38;68.18;;;3.80;94.00;;;;;;5028543;28;20205;-72
2021/11/11 07:53:45;;;;;;;46.67;42.55;;;3.80;93.80;;;;;;5027217;28;20244;-71
2021/11/11 07:56:15;;;;;;;45.75;41.13;;;3.90;93.30;;;;;;5017892;28;20665;-72
2021/11/11 07:58:42;;;;;;;42.83;39.10;;;4.00;93.00;;;;;;5028667;28;20659;-71
2021/11/11 08:01:11;;;;;;;42.97;38.67;;;4.10;92.60;;;;;;5028443;28;20284;-72
2021/11/11 08:03:38;;;;;;;43.83;39.75;;;4.20;92.10;;;;;;5024963;28;20256;-71
2021/11/11 08:06:05;;;;;;;81.75;42.85;;;4.30;91.80;;;;;;5020583;28;20668;-71
2021/11/11 08:08:37;;;;;;;43.35;39.33;;;4.40;91.60;;;;;;5027976;28;20193;-74
2021/11/11 08:11:05;;;;;;;40.10;36.63;;;4.50;91.40;;;;;;5017781;28;20689;-72
2021/11/11 08:13:32;;;;;;;43.08;39.38;;;4.60;90.70;;;;;;5027414;28;20228;-73
2021/11/11 08:15:59;;;;;;;43.78;39.58;;;4.60;91.00;;;;;;5028556;28;20227;-74
2021/11/11 08:18:28;;;;;;;44.65;40.55;;;4.70;90.40;;;;;;5028249;28;20194;-73
2021/11/11 08:20:55;;;;;;;44.53;40.33;;;4.70;90.20;;;;;;5028525;28;20292;-71
2021/11/11 08:23:23;;;;;;;44.92;40.92;;;4.80;89.90;;;;;;5027939;28;20271;-74
2021/11/11 08:25:51;;;;;;;43.72;40.08;;;4.80;89.90;;;;;;5027357;28;20280;-72
2021/11/11 08:28:20;;;;;;;44.03;40.17;;;4.90;89.30;;;;;;5028559;28;20228;-71
2021/11/11 08:30:48;;;;;;;42.28;38.80;;;5.00;88.90;;;;;;5020809;28;20200;-72
2021/11/11 08:33:15;;;;;;;44.45;40.10;;;5.10;88.60;;;;;;5027554;28;20217;-72
2021/11/11 08:35:44;;;;;;;43.20;39.50;;;5.20;88.10;;;;;;5026802;28;20244;-72
2021/11/11 08:38:11;;;;;;;42.97;38.70;;;5.20;87.70;;;;;;5028538;28;20212;-73
2021/11/11 08:40:39;;;;;;;43.05;39.28;;;5.20;87.50;;;;;;5027461;28;20232;-72
2021/11/11 08:43:07;;;;;;;44.47;40.40;;;5.40;87.90;;;;;;5026615;28;20769;-72
2021/11/11 08:45:35;;;;;;;43.47;39.53;;;5.30;87.80;;;;;;5013052;28;20236;-74
2021/11/11 08:48:05;;;;;;;1999.90;428.10;;;5.30;89.10;;;;;;5027946;28;20205;-73
2021/11/11 08:50:35;;;;;;;45.88;41.30;;;5.40;91.60;;;;;;5025400;28;20198;-74
2021/11/11 08:53:06;;;;;;;43.38;39.47;;;5.50;90.60;;;;;;5024644;28;20245;-73
2021/11/11 08:55:34;;;;;;;42.03;38.38;;;5.60;89.90;;;;;;5028033;28;20221;-73
2021/11/11 08:58:04;;;;;;;44.42;40.80;;;5.70;89.80;;;;;;5028843;28;20754;-73
2021/11/11 09:00:33;;;;;;;43.92;39.92;;;5.80;88.40;;;;;;5029474;28;20235;-73
2021/11/11 09:03:02;;;;;;;42.60;39.10;;;5.80;89.70;;;;;;5027108;28;20304;-73
2021/11/11 09:05:31;;;;;;;42.67;38.88;;;5.90;88.50;;;;;;5025427;28;20233;-72
2021/11/11 09:07:59;;;;;;;43.00;39.10;;;6.00;87.30;;;;;;5028782;28;20288;-72
2021/11/11 09:10:28;;;;;;;45.00;40.83;;;6.10;86.60;;;;;;5024446;28;20313;-71
2021/11/11 09:12:56;;;;;;;42.58;38.42;;;6.20;86.30;;;;;;5021667;28;20233;-70
2021/11/11 09:15:26;;;;;;;43.47;39.33;;;6.30;85.20;;;;;;5019686;28;20644;-70
2021/11/11 09:17:55;;;;;;;42.47;38.40;;;6.10;84.80;;;;;;5023117;28;20204;-72
2021/11/11 09:20:24;;;;;;;44.20;40.00;;;6.10;85.70;;;;;;5020802;28;20683;-70
2021/11/11 09:22:54;;;;;;;44.45;40.53;;;6.10;85.30;;;;;;5022743;28;20214;-72
2021/11/11 09:25:22;;;;;;;45.60;41.17;;;6.30;86.60;;;;;;5019521;28;20839;-72
2021/11/11 09:27:51;;;;;;;45.40;41.10;;;6.30;86.00;;;;;;5020666;28;20289;-70
2021/11/11 09:30:24;;;;;;;42.33;38.40;;;6.40;86.40;;;;;;5024264;28;20206;-73
2021/11/11 09:32:52;;;;;;;44.47;40.47;;;6.50;85.40;;;;;;5021816;28;20209;-71
2021/11/11 09:35:19;;;;;;;43.17;39.38;;;6.60;86.20;;;;;;5024980;28;20206;-74
2021/11/11 09:37:46;;;;;;;42.30;38.10;;;6.70;85.30;;;;;;5025597;28;20730;-70
2021/11/11 09:40:16;;;;;;;41.97;38.15;;;6.80;84.40;;;;;;5026663;28;20365;-72
2021/11/11 09:42:46;;;;;;;40.53;37.03;;;7.00;83.20;;;;;;5024139;28;20673;-72
2021/11/11 09:45:17;;;;;;;52.60;48.05;;;7.00;83.70;;;;;;5022880;28;20209;-72
2021/11/11 09:47:48;;;;;;;46.08;42.08;;;7.00;83.80;;;;;;5025029;28;20285;-70
2021/11/11 09:50:15;;;;;;;43.63;39.53;;;7.10;83.60;;;;;;5028861;28;20229;-72
2021/11/11 09:52:43;;;;;;;41.58;37.72;;;7.10;83.70;;;;;;5027083;28;20741;-70
2021/11/11 10:00:44;;;;;;;43.80;40.17;;;7.20;84.70;;;;;;5030671;28;20811;-69
2021/11/11 10:03:11;;;;;;;43.30;39.75;;;7.40;83.60;;;;;;5030036;28;20647;-70
2021/11/11 10:05:38;;;;;;;41.33;37.47;;;7.50;82.90;;;;;;5028989;28;20200;-69
2021/11/11 10:08:06;;;;;;;43.65;39.83;;;7.60;82.70;;;;;;5029459;28;20197;-70
2021/11/11 10:10:37;;;;;;;43.95;40.20;;;7.60;82.20;;;;;;5027370;28;20290;-70
2021/11/11 10:13:20;;;;;;;43.15;39.67;;;7.50;82.80;;;;;;5022359;28;20229;-73
2021/11/11 10:16:03;;;;;;;44.40;40.30;;;7.60;83.40;;;;;;5017789;28;20288;-73
2021/11/11 10:18:41;;;;;;;44.22;39.92;;;7.80;81.70;;;;;;5028276;28;20229;-74
2021/11/11 10:21:22;;;;;;;42.28;38.83;;;7.70;81.40;;;;;;5029796;28;20200;-73
2021/11/11 10:23:49;;;;;;;44.40;40.55;;;7.80;81.50;;;;;;5029091;28;20225;-73
2021/11/11 10:26:19;;;;;;;45.67;41.80;;;7.80;81.10;;;;;;5027623;28;20207;-73
2021/11/11 10:28:47;;;;;;;44.30;40.30;;;7.80;81.50;;;;;;5030194;28;20193;-73
2021/11/11 10:31:17;;;;;;;44.90;41.00;;;7.80;81.40;;;;;;5029366;28;20197;-78
2021/11/11 10:34:07;;;;;;;44.13;39.75;;;7.80;82.40;;;;;;5029055;28;20263;-73
2021/11/11 10:36:46;;;;;;;45.45;41.13;;;7.80;82.00;;;;;;5029009;28;20208;-75
2021/11/11 10:39:17;;;;;;;43.80;39.78;;;7.90;81.60;;;;;;5028606;28;20201;-73
2021/11/11 10:41:45;;;;;;;45.03;40.97;;;8.10;80.60;;;;;;5029018;28;20287;-71
2021/11/11 10:44:21;;;;;;;43.38;39.55;;;8.20;80.20;;;;;;5022967;28;20222;-73
2021/11/11 10:46:52;;;;;;;44.38;40.40;;;8.30;80.30;;;;;;5027942;28;20193;-73
2021/11/11 10:49:21;;;;;;;44.28;40.15;;;8.30;80.20;;;;;;5029646;28;20311;-72
2021/11/11 10:51:49;;;;;;;43.10;39.35;;;8.30;83.10;;;;;;5028949;28;20201;-72
2021/11/11 10:54:16;;;;;;;43.00;39.42;;;8.40;81.50;;;;;;5030631;28;20213;-73
2021/11/11 10:56:46;;;;;;;41.53;38.20;;;8.50;80.80;;;;;;5028447;28;20194;-72
2021/11/11 10:59:14;;;;;;;45.28;41.38;;;8.50;80.50;;;;;;5030222;28;20202;-72
2021/11/11 11:01:41;;;;;;;42.55;38.83;;;8.50;80.10;;;;;;5029695;28;20212;-72
2021/11/11 11:04:28;;;;;;;45.75;41.42;;;8.60;79.90;;;;;;5022083;28;20291;-73
2021/11/11 11:07:14;;;;;;;44.88;40.97;;;8.70;79.80;;;;;;5023555;28;20541;-72
2021/11/11 11:09:42;;;;;;;43.95;40.25;;;8.70;79.60;;;;;;5031168;28;20300;-72
2021/11/11 11:12:27;;;;;;;44.13;40.23;;;8.70;82.90;;;;;;5028949;28;20315;-72
2021/11/11 11:14:54;;;;;;;44.30;40.70;;;8.70;80.50;;;;;;5030047;28;20448;-72
2021/11/11 11:17:22;;;;;;;48.97;44.35;;;8.80;82.20;;;;;;5017204;28;20455;-74
2021/11/11 11:19:50;;;;;;;51.10;45.83;;;8.90;80.90;;;;;;5029572;28;20201;-73
2021/11/11 11:22:25;;;;;;;147.50;85.70;;;9.00;79.60;;;;;;5025642;28;20793;-72
2021/11/11 11:25:02;;;;;;;58.20;51.92;;;9.00;78.70;;;;;;5024155;28;20204;-76
2021/11/11 11:27:34;;;;;;;51.67;46.97;;;9.20;78.50;;;;;;5025667;28;20288;-71
2021/11/11 11:30:07;;;;;;;46.53;42.47;;;9.20;78.80;;;;;;5027859;28;20288;-70
2021/11/11 11:32:35;;;;;;;45.58;41.75;;;9.40;78.60;;;;;;5018105;28;20270;-70
2021/11/11 11:35:05;;;;;;;41.60;38.07;;;9.40;79.60;;;;;;5026767;28;20193;-71
2021/11/11 11:37:35;;;;;;;45.03;41.20;;;9.40;78.60;;;;;;5025253;28;20456;-71
2021/11/11 11:40:05;;;;;;;45.17;41.20;;;9.30;77.40;;;;;;5029220;28;20448;-70
2021/11/11 11:42:35;;;;;;;46.03;42.00;;;9.40;76.60;;;;;;5028310;28;20244;-70
2021/11/11 11:45:07;;;;;;;45.00;41.20;;;9.30;77.00;;;;;;5028663;28;20491;-70
2021/11/11 11:47:37;;;;;;;45.60;42.10;;;9.30;77.60;;;;;;5027017;28;21159;-71
2021/11/11 11:50:10;;;;;;;46.35;42.17;;;9.40;79.20;;;;;;5029678;28;20201;-73
2021/11/11 11:52:39;;;;;;;43.40;39.80;;;9.50;77.20;;;;;;5017775;28;20223;-72
2021/11/11 11:55:10;;;;;;;45.33;41.40;;;9.50;77.40;;;;;;5028657;28;20287;-72
2021/11/11 11:57:54;;;;;;;46.53;42.33;;;9.40;77.00;;;;;;5027744;28;20972;-72
2021/11/11 12:00:46;;;;;;;43.20;39.60;;;9.50;76.30;;;;;;5028349;28;20531;-72
2021/11/11 12:03:25;;;;;;;43.87;39.37;;;9.40;76.60;;;;;;5028087;28;20485;-74
2021/11/11 12:14:47;;;;;;;41.90;38.50;;;9.50;75.90;;;;;;5029085;28;20997;-74
2021/11/11 12:29:27;;;;;;;43.23;40.03;;;9.20;77.60;;;;;;5028760;28;20554;-72
2021/11/11 12:40:25;;;;;;;47.47;43.50;;;9.00;78.80;;;;;;5026019;28;22510;-73
2021/11/11 12:42:55;;;;;;;42.63;39.00;;;9.10;79.00;;;;;;5017141;28;20209;-74
2021/11/11 12:45:24;;;;;;;44.87;41.17;;;9.10;79.70;;;;;;5023378;28;20985;-72
2021/11/11 12:47:53;;;;;;;42.80;39.20;;;9.20;78.70;;;;;;5024798;28;20542;-71
2021/11/11 12:50:39;;;;;;;42.97;39.45;;;9.20;78.80;;;;;;5027298;28;20985;-73
2021/11/11 12:53:31;;;;;;;44.57;41.10;;;9.10;79.40;;;;;;5027977;28;20291;-71
2021/11/11 12:56:36;;;;;;;42.40;39.20;;;9.00;81.40;;;;;;5026625;28;20545;-72
2021/11/11 12:59:10;;;;;;;41.70;38.60;;;9.20;78.90;;;;;;5018154;28;20292;-75
2021/11/11 13:01:53;;;;;;;46.40;42.40;;;9.00;79.50;;;;;;5020641;28;20551;-76
2021/11/11 13:04:21;;;;;;;42.57;38.83;;;9.20;79.40;;;;;;5018883;28;20481;-73
2021/11/11 13:06:51;;;;;;;45.17;40.90;;;9.30;78.70;;;;;;5028596;28;20976;-73
2021/11/11 13:09:28;;;;;;;44.93;41.23;;;9.20;78.90;;;;;;5033081;28;20558;-73
2021/11/11 13:12:10;;;;;;;43.45;39.88;;;9.20;79.60;;;;;;5030888;28;20547;-73
2021/11/11 13:14:52;;;;;;;47.83;43.57;;;9.40;79.30;;;;;;5031850;28;20199;-76
2021/11/11 13:17:20;;;;;;;46.10;42.13;;;9.40;78.40;;;;;;5031030;28;20937;-74
2021/11/11 13:19:50;;;;;;;45.22;41.58;;;9.40;78.20;;;;;;5031177;28;20550;-75
2021/11/11 13:22:21;;;;;;;43.60;39.77;;;9.30;78.40;;;;;;5032012;28;20256;-75
2021/11/11 13:24:59;;;;;;;47.30;43.30;;;9.30;78.70;;;;;;5030199;28;20460;-76
2021/11/11 13:27:58;;;;;;;44.70;41.00;;;9.30;78.80;;;;;;5030920;28;20529;-77